sensor_id;sensor_type;location;lat;lon;timestamp;P1;durP1;ratioP1;P2;durP2;ratioP2
43504;SDS011;29098;48.184;16.298;2022-08-02T00:01:26;3.17;;;2.03;;
43504;SDS011;29098;48.184;16.298;2022-08-02T00:04:34;3.22;;;1.95;;
43504;SDS011;29098;48.184;16.298;2022-08-02T00:07:44;4.18;;;2.08;;
43504;SDS011;29098;48.184;16.298;2022-08-02T00:10:54;6.35;;;3.00;;
43504;SDS011;29098;48.184;16.298;2022-08-02T00:13:26;4.32;;;2.30;;
43504;SDS011;29098;48.184;16.298;2022-08-02T00:16:22;5.18;;;2.63;;
43504;SDS011;29098;48.184;16.298;2022-08-02T00:19:33;4.70;;;2.17;;
43504;SDS011;29098;48.184;16.298;2022-08-02T00:22:40;4.78;;;2.60;;
43504;SDS011;29098;48.184;16.298;2022-08-02T00:26:08;6.38;;;2.30;;
43504;SDS011;29098;48.184;16.298;2022-08-02T00:29:33;5.82;;;2.80;;
43504;SDS011;29098;48.184;16.298;2022-08-02T00:32:29;4.30;;;2.40;;
43504;SDS011;29098;48.184;16.298;2022-08-02T00:35:55;5.45;;;2.33;;
43504;SDS011;29098;48.184;16.298;2022-08-02T00:38:46;16.38;;;6.60;;
43504;SDS011;29098;48.184;16.298;2022-08-02T00:41:51;4.50;;;2.03;;
43504;SDS011;29098;48.184;16.298;2022-08-02T00:44:29;4.80;;;2.13;;
43504;SDS011;29098;48.184;16.298;2022-08-02T00:47:17;3.10;;;1.75;;
43504;SDS011;29098;48.184;16.298;2022-08-02T00:50:48;3.83;;;2.30;;
43504;SDS011;29098;48.184;16.298;2022-08-02T00:53:38;4.57;;;2.38;;
43504;SDS011;29098;48.184;16.298;2022-08-02T00:56:50;5.13;;;2.20;;
43504;SDS011;29098;48.184;16.298;2022-08-02T00:59:58;4.78;;;2.13;;
43504;SDS011;29098;48.184;16.298;2022-08-02T01:03:25;4.03;;;2.28;;
43504;SDS011;29098;48.184;16.298;2022-08-02T01:06:18;4.80;;;2.58;;
43504;SDS011;29098;48.184;16.298;2022-08-02T01:09:51;3.22;;;1.75;;
43504;SDS011;29098;48.184;16.298;2022-08-02T01:12:59;4.03;;;2.50;;
43504;SDS011;29098;48.184;16.298;2022-08-02T01:16:10;3.53;;;1.98;;
43504;SDS011;29098;48.184;16.298;2022-08-02T01:18:52;2.72;;;1.55;;
43504;SDS011;29098;48.184;16.298;2022-08-02T01:22:05;3.45;;;2.17;;
43504;SDS011;29098;48.184;16.298;2022-08-02T01:29:47;3.20;;;2.00;;
43504;SDS011;29098;48.184;16.298;2022-08-02T01:32:16;3.63;;;1.77;;
43504;SDS011;29098;48.184;16.298;2022-08-02T01:35:40;3.85;;;1.90;;
43504;SDS011;29098;48.184;16.298;2022-08-02T01:38:38;3.00;;;1.70;;
43504;SDS011;29098;48.184;16.298;2022-08-02T01:41:50;2.72;;;1.73;;
43504;SDS011;29098;48.184;16.298;2022-08-02T01:48:12;4.40;;;1.80;;
43504;SDS011;29098;48.184;16.298;2022-08-02T01:51:26;4.68;;;1.83;;
43504;SDS011;29098;48.184;16.298;2022-08-02T01:54:32;3.40;;;1.67;;
43504;SDS011;29098;48.184;16.298;2022-08-02T01:57:32;3.35;;;2.00;;
43504;SDS011;29098;48.184;16.298;2022-08-02T02:00:46;2.20;;;1.30;;
43504;SDS011;29098;48.184;16.298;2022-08-02T02:03:39;4.07;;;1.67;;
43504;SDS011;29098;48.184;16.298;2022-08-02T02:06:31;3.45;;;1.60;;
43504;SDS011;29098;48.184;16.298;2022-08-02T02:09:46;3.03;;;1.83;;
43504;SDS011;29098;48.184;16.298;2022-08-02T02:12:43;3.03;;;1.65;;
43504;SDS011;29098;48.184;16.298;2022-08-02T02:15:39;3.10;;;1.67;;
43504;SDS011;29098;48.184;16.298;2022-08-02T02:18:47;2.22;;;1.08;;
43504;SDS011;29098;48.184;16.298;2022-08-02T02:21:37;6.57;;;1.92;;
43504;SDS011;29098;48.184;16.298;2022-08-02T02:24:44;2.88;;;1.50;;
43504;SDS011;29098;48.184;16.298;2022-08-02T02:27:38;3.17;;;1.50;;
43504;SDS011;29098;48.184;16.298;2022-08-02T02:30:51;2.50;;;1.45;;
43504;SDS011;29098;48.184;16.298;2022-08-02T02:37:12;3.20;;;1.40;;
43504;SDS011;29098;48.184;16.298;2022-08-02T02:39:52;3.30;;;2.00;;
43504;SDS011;29098;48.184;16.298;2022-08-02T02:42:40;3.85;;;1.75;;
43504;SDS011;29098;48.184;16.298;2022-08-02T02:46:10;2.65;;;1.50;;
43504;SDS011;29098;48.184;16.298;2022-08-02T02:49:23;3.83;;;2.10;;
43504;SDS011;29098;48.184;16.298;2022-08-02T02:52:16;5.43;;;2.10;;
43504;SDS011;29098;48.184;16.298;2022-08-02T02:55:26;2.80;;;1.55;;
43504;SDS011;29098;48.184;16.298;2022-08-02T02:58:14;2.97;;;1.67;;
43504;SDS011;29098;48.184;16.298;2022-08-02T03:01:42;3.92;;;1.50;;
43504;SDS011;29098;48.184;16.298;2022-08-02T03:05:14;3.00;;;1.73;;
43504;SDS011;29098;48.184;16.298;2022-08-02T03:08:40;5.03;;;1.25;;
43504;SDS011;29098;48.184;16.298;2022-08-02T03:12:00;2.38;;;1.55;;
43504;SDS011;29098;48.184;16.298;2022-08-02T03:14:53;2.75;;;1.48;;
43504;SDS011;29098;48.184;16.298;2022-08-02T03:18:34;2.88;;;1.38;;
43504;SDS011;29098;48.184;16.298;2022-08-02T03:21:37;2.40;;;1.45;;
43504;SDS011;29098;48.184;16.298;2022-08-02T03:24:47;3.72;;;1.85;;
43504;SDS011;29098;48.184;16.298;2022-08-02T03:27:41;3.10;;;1.52;;
43504;SDS011;29098;48.184;16.298;2022-08-02T03:31:11;3.40;;;1.30;;
43504;SDS011;29098;48.184;16.298;2022-08-02T03:34:22;4.75;;;1.52;;
43504;SDS011;29098;48.184;16.298;2022-08-02T03:37:28;2.70;;;1.58;;
43504;SDS011;29098;48.184;16.298;2022-08-02T03:41:00;3.40;;;1.67;;
43504;SDS011;29098;48.184;16.298;2022-08-02T03:44:09;3.83;;;1.67;;
43504;SDS011;29098;48.184;16.298;2022-08-02T03:46:57;3.38;;;1.70;;
43504;SDS011;29098;48.184;16.298;2022-08-02T03:50:01;4.43;;;2.13;;
43504;SDS011;29098;48.184;16.298;2022-08-02T03:53:15;3.92;;;2.05;;
43504;SDS011;29098;48.184;16.298;2022-08-02T03:56:06;3.80;;;1.42;;
43504;SDS011;29098;48.184;16.298;2022-08-02T04:02:15;4.05;;;2.20;;
43504;SDS011;29098;48.184;16.298;2022-08-02T04:04:52;2.75;;;1.20;;
43504;SDS011;29098;48.184;16.298;2022-08-02T04:07:44;3.78;;;1.50;;
43504;SDS011;29098;48.184;16.298;2022-08-02T04:10:34;4.82;;;1.50;;
43504;SDS011;29098;48.184;16.298;2022-08-02T04:13:38;2.15;;;1.35;;
43504;SDS011;29098;48.184;16.298;2022-08-02T04:17:08;2.72;;;1.23;;
43504;SDS011;29098;48.184;16.298;2022-08-02T04:20:20;3.38;;;1.90;;
43504;SDS011;29098;48.184;16.298;2022-08-02T04:23:47;2.92;;;1.50;;
43504;SDS011;29098;48.184;16.298;2022-08-02T04:27:12;2.85;;;1.63;;
43504;SDS011;29098;48.184;16.298;2022-08-02T04:30:20;2.55;;;1.60;;
43504;SDS011;29098;48.184;16.298;2022-08-02T04:33:40;4.22;;;2.03;;
43504;SDS011;29098;48.184;16.298;2022-08-02T04:36:51;3.10;;;1.30;;
43504;SDS011;29098;48.184;16.298;2022-08-02T04:40:12;3.05;;;1.70;;
43504;SDS011;29098;48.184;16.298;2022-08-02T04:43:38;2.83;;;1.80;;
43504;SDS011;29098;48.184;16.298;2022-08-02T04:46:48;2.13;;;1.35;;
43504;SDS011;29098;48.184;16.298;2022-08-02T04:49:43;3.75;;;1.90;;
43504;SDS011;29098;48.184;16.298;2022-08-02T04:53:00;3.47;;;1.70;;
43504;SDS011;29098;48.184;16.298;2022-08-02T04:56:08;2.97;;;1.52;;
43504;SDS011;29098;48.184;16.298;2022-08-02T04:58:41;3.33;;;1.60;;
43504;SDS011;29098;48.184;16.298;2022-08-02T05:01:36;2.63;;;1.52;;
43504;SDS011;29098;48.184;16.298;2022-08-02T05:05:09;5.70;;;1.90;;
43504;SDS011;29098;48.184;16.298;2022-08-02T05:08:08;3.05;;;1.70;;
43504;SDS011;29098;48.184;16.298;2022-08-02T05:11:29;4.00;;;1.80;;
43504;SDS011;29098;48.184;16.298;2022-08-02T05:14:40;3.22;;;1.65;;
43504;SDS011;29098;48.184;16.298;2022-08-02T05:17:46;3.75;;;1.98;;
43504;SDS011;29098;48.184;16.298;2022-08-02T05:20:20;6.13;;;1.67;;
43504;SDS011;29098;48.184;16.298;2022-08-02T05:23:17;5.03;;;2.28;;
43504;SDS011;29098;48.184;16.298;2022-08-02T05:26:10;4.65;;;1.83;;
43504;SDS011;29098;48.184;16.298;2022-08-02T05:29:23;3.22;;;1.92;;
43504;SDS011;29098;48.184;16.298;2022-08-02T05:32:51;4.30;;;1.98;;
43504;SDS011;29098;48.184;16.298;2022-08-02T05:36:02;3.30;;;1.85;;
43504;SDS011;29098;48.184;16.298;2022-08-02T05:38:57;3.50;;;1.88;;
43504;SDS011;29098;48.184;16.298;2022-08-02T05:42:05;5.22;;;2.13;;
43504;SDS011;29098;48.184;16.298;2022-08-02T05:45:12;3.95;;;2.03;;
43504;SDS011;29098;48.184;16.298;2022-08-02T05:48:27;5.07;;;1.70;;
43504;SDS011;29098;48.184;16.298;2022-08-02T05:51:42;3.50;;;2.08;;
43504;SDS011;29098;48.184;16.298;2022-08-02T05:55:04;4.65;;;1.85;;
43504;SDS011;29098;48.184;16.298;2022-08-02T06:00:39;4.20;;;2.10;;
43504;SDS011;29098;48.184;16.298;2022-08-02T06:03:52;3.40;;;2.10;;
43504;SDS011;29098;48.184;16.298;2022-08-02T06:07:02;4.30;;;2.22;;
43504;SDS011;29098;48.184;16.298;2022-08-02T06:10:12;4.35;;;2.20;;
43504;SDS011;29098;48.184;16.298;2022-08-02T06:13:12;3.50;;;2.20;;
43504;SDS011;29098;48.184;16.298;2022-08-02T06:16:06;3.78;;;2.35;;
43504;SDS011;29098;48.184;16.298;2022-08-02T06:19:28;3.70;;;2.25;;
43504;SDS011;29098;48.184;16.298;2022-08-02T06:22:51;3.83;;;1.92;;
43504;SDS011;29098;48.184;16.298;2022-08-02T06:26:00;4.05;;;2.30;;
43504;SDS011;29098;48.184;16.298;2022-08-02T06:28:55;8.82;;;2.30;;
43504;SDS011;29098;48.184;16.298;2022-08-02T06:32:21;3.88;;;2.22;;
43504;SDS011;29098;48.184;16.298;2022-08-02T06:35:45;3.97;;;2.00;;
43504;SDS011;29098;48.184;16.298;2022-08-02T06:39:00;4.22;;;2.10;;
43504;SDS011;29098;48.184;16.298;2022-08-02T06:41:51;4.25;;;2.67;;
43504;SDS011;29098;48.184;16.298;2022-08-02T06:44:59;3.17;;;1.88;;
43504;SDS011;29098;48.184;16.298;2022-08-02T06:48:06;3.55;;;2.33;;
43504;SDS011;29098;48.184;16.298;2022-08-02T06:51:31;5.35;;;2.13;;
43504;SDS011;29098;48.184;16.298;2022-08-02T06:54:45;3.55;;;2.22;;
43504;SDS011;29098;48.184;16.298;2022-08-02T06:58:20;3.20;;;2.17;;
43504;SDS011;29098;48.184;16.298;2022-08-02T07:01:31;2.80;;;1.77;;
43504;SDS011;29098;48.184;16.298;2022-08-02T07:04:34;5.13;;;2.15;;
43504;SDS011;29098;48.184;16.298;2022-08-02T07:07:44;3.90;;;2.10;;
43504;SDS011;29098;48.184;16.298;2022-08-02T07:10:48;4.65;;;2.17;;
43504;SDS011;29098;48.184;16.298;2022-08-02T07:13:37;4.15;;;1.90;;
43504;SDS011;29098;48.184;16.298;2022-08-02T07:17:09;3.97;;;1.70;;
43504;SDS011;29098;48.184;16.298;2022-08-02T07:20:17;5.70;;;2.40;;
43504;SDS011;29098;48.184;16.298;2022-08-02T07:22:49;3.30;;;1.95;;
43504;SDS011;29098;48.184;16.298;2022-08-02T07:25:48;4.82;;;2.00;;
43504;SDS011;29098;48.184;16.298;2022-08-02T07:28:57;3.88;;;2.15;;
43504;SDS011;29098;48.184;16.298;2022-08-02T07:32:09;3.92;;;2.17;;
43504;SDS011;29098;48.184;16.298;2022-08-02T07:35:06;4.05;;;2.35;;
43504;SDS011;29098;48.184;16.298;2022-08-02T07:38:32;6.43;;;2.35;;
43504;SDS011;29098;48.184;16.298;2022-08-02T07:41:07;6.93;;;2.45;;
43504;SDS011;29098;48.184;16.298;2022-08-02T07:44:25;4.07;;;2.30;;
43504;SDS011;29098;48.184;16.298;2022-08-02T07:47:13;3.50;;;2.08;;
43504;SDS011;29098;48.184;16.298;2022-08-02T07:50:06;3.65;;;2.30;;
43504;SDS011;29098;48.184;16.298;2022-08-02T07:52:58;3.63;;;2.25;;
43504;SDS011;29098;48.184;16.298;2022-08-02T07:56:06;4.45;;;2.38;;
43504;SDS011;29098;48.184;16.298;2022-08-02T07:59:22;4.07;;;2.70;;
43504;SDS011;29098;48.184;16.298;2022-08-02T08:02:51;3.97;;;2.30;;
43504;SDS011;29098;48.184;16.298;2022-08-02T08:05:59;4.25;;;2.65;;
43504;SDS011;29098;48.184;16.298;2022-08-02T08:08:47;4.78;;;2.70;;
43504;SDS011;29098;48.184;16.298;2022-08-02T08:11:54;4.85;;;2.53;;
43504;SDS011;29098;48.184;16.298;2022-08-02T08:14:41;3.75;;;2.50;;
43504;SDS011;29098;48.184;16.298;2022-08-02T08:17:49;3.55;;;2.40;;
43504;SDS011;29098;48.184;16.298;2022-08-02T08:21:21;3.53;;;2.08;;
43504;SDS011;29098;48.184;16.298;2022-08-02T08:24:19;3.75;;;2.25;;
43504;SDS011;29098;48.184;16.298;2022-08-02T08:27:24;5.25;;;2.35;;
43504;SDS011;29098;48.184;16.298;2022-08-02T08:30:56;3.40;;;2.17;;
43504;SDS011;29098;48.184;16.298;2022-08-02T08:33:45;3.95;;;2.75;;
43504;SDS011;29098;48.184;16.298;2022-08-02T08:37:14;4.82;;;2.13;;
43504;SDS011;29098;48.184;16.298;2022-08-02T08:40:19;4.13;;;2.13;;
43504;SDS011;29098;48.184;16.298;2022-08-02T08:43:33;4.00;;;2.42;;
43504;SDS011;29098;48.184;16.298;2022-08-02T08:46:41;5.00;;;2.47;;
43504;SDS011;29098;48.184;16.298;2022-08-02T08:49:51;3.97;;;2.55;;
43504;SDS011;29098;48.184;16.298;2022-08-02T08:53:25;6.03;;;2.67;;
43504;SDS011;29098;48.184;16.298;2022-08-02T08:56:13;3.40;;;2.30;;
43504;SDS011;29098;48.184;16.298;2022-08-02T08:59:24;4.30;;;2.47;;
43504;SDS011;29098;48.184;16.298;2022-08-02T09:02:52;5.18;;;2.85;;
43504;SDS011;29098;48.184;16.298;2022-08-02T09:05:44;4.63;;;2.17;;
43504;SDS011;29098;48.184;16.298;2022-08-02T09:08:51;5.60;;;2.08;;
43504;SDS011;29098;48.184;16.298;2022-08-02T09:12:13;5.00;;;2.17;;
43504;SDS011;29098;48.184;16.298;2022-08-02T09:15:09;3.47;;;2.30;;
43504;SDS011;29098;48.184;16.298;2022-08-02T09:18:14;3.38;;;2.17;;
43504;SDS011;29098;48.184;16.298;2022-08-02T09:21:08;3.40;;;2.38;;
43504;SDS011;29098;48.184;16.298;2022-08-02T09:24:21;3.72;;;2.45;;
43504;SDS011;29098;48.184;16.298;2022-08-02T09:27:10;4.60;;;2.10;;
43504;SDS011;29098;48.184;16.298;2022-08-02T09:29:59;3.80;;;2.00;;
43504;SDS011;29098;48.184;16.298;2022-08-02T09:33:08;3.65;;;2.05;;
43504;SDS011;29098;48.184;16.298;2022-08-02T09:36:00;3.08;;;2.03;;
43504;SDS011;29098;48.184;16.298;2022-08-02T09:39:06;2.75;;;1.70;;
43504;SDS011;29098;48.184;16.298;2022-08-02T09:42:12;3.38;;;1.95;;
43504;SDS011;29098;48.184;16.298;2022-08-02T09:44:56;3.63;;;2.08;;
43504;SDS011;29098;48.184;16.298;2022-08-02T09:48:21;2.63;;;1.45;;
43504;SDS011;29098;48.184;16.298;2022-08-02T09:54:42;3.50;;;1.30;;
43504;SDS011;29098;48.184;16.298;2022-08-02T09:57:50;2.97;;;1.50;;
43504;SDS011;29098;48.184;16.298;2022-08-02T10:01:10;2.35;;;1.38;;
43504;SDS011;29098;48.184;16.298;2022-08-02T10:04:36;3.05;;;1.73;;
43504;SDS011;29098;48.184;16.298;2022-08-02T10:07:40;3.15;;;1.90;;
43504;SDS011;29098;48.184;16.298;2022-08-02T10:10:51;2.20;;;1.35;;
43504;SDS011;29098;48.184;16.298;2022-08-02T10:14:01;2.97;;;1.40;;
43504;SDS011;29098;48.184;16.298;2022-08-02T10:17:27;2.50;;;1.55;;
43504;SDS011;29098;48.184;16.298;2022-08-02T10:20:16;2.20;;;1.48;;
43504;SDS011;29098;48.184;16.298;2022-08-02T10:23:17;2.92;;;1.90;;
43504;SDS011;29098;48.184;16.298;2022-08-02T10:26:07;2.88;;;2.00;;
43504;SDS011;29098;48.184;16.298;2022-08-02T10:29:17;2.15;;;1.40;;
43504;SDS011;29098;48.184;16.298;2022-08-02T10:32:09;3.25;;;1.70;;
43504;SDS011;29098;48.184;16.298;2022-08-02T10:35:20;3.40;;;1.70;;
43504;SDS011;29098;48.184;16.298;2022-08-02T10:38:26;2.13;;;1.35;;
43504;SDS011;29098;48.184;16.298;2022-08-02T10:41:54;4.95;;;1.55;;
43504;SDS011;29098;48.184;16.298;2022-08-02T10:45:09;2.97;;;1.60;;
43504;SDS011;29098;48.184;16.298;2022-08-02T10:48:15;3.28;;;1.85;;
43504;SDS011;29098;48.184;16.298;2022-08-02T10:51:24;4.43;;;1.77;;
43504;SDS011;29098;48.184;16.298;2022-08-02T10:54:39;2.53;;;1.45;;
43504;SDS011;29098;48.184;16.298;2022-08-02T10:58:22;5.68;;;1.58;;
43504;SDS011;29098;48.184;16.298;2022-08-02T11:01:37;3.53;;;1.40;;
43504;SDS011;29098;48.184;16.298;2022-08-02T11:13:28;1.92;;;1.17;;
43504;SDS011;29098;48.184;16.298;2022-08-02T11:17:10;2.53;;;1.35;;
43504;SDS011;29098;48.184;16.298;2022-08-02T11:29:08;1.80;;;1.00;;
43504;SDS011;29098;48.184;16.298;2022-08-02T11:32:47;1.85;;;1.10;;
43504;SDS011;29098;48.184;16.298;2022-08-02T11:35:36;1.88;;;1.17;;
43504;SDS011;29098;48.184;16.298;2022-08-02T11:38:19;2.53;;;1.30;;
43504;SDS011;29098;48.184;16.298;2022-08-02T11:41:25;2.67;;;1.73;;
43504;SDS011;29098;48.184;16.298;2022-08-02T11:44:22;2.58;;;1.45;;
43504;SDS011;29098;48.184;16.298;2022-08-02T11:47:47;2.33;;;1.17;;
43504;SDS011;29098;48.184;16.298;2022-08-02T11:51:10;1.95;;;1.10;;
43504;SDS011;29098;48.184;16.298;2022-08-02T11:54:38;2.17;;;1.40;;
43504;SDS011;29098;48.184;16.298;2022-08-02T11:57:44;2.42;;;1.40;;
43504;SDS011;29098;48.184;16.298;2022-08-02T12:00:37;1.80;;;1.00;;
43504;SDS011;29098;48.184;16.298;2022-08-02T12:03:51;1.67;;;1.10;;
43504;SDS011;29098;48.184;16.298;2022-08-02T12:07:06;1.73;;;1.05;;
43504;SDS011;29098;48.184;16.298;2022-08-02T12:10:15;1.98;;;1.20;;
43504;SDS011;29098;48.184;16.298;2022-08-02T12:13:17;2.63;;;0.93;;
43504;SDS011;29098;48.184;16.298;2022-08-02T12:16:08;3.03;;;1.27;;
43504;SDS011;29098;48.184;16.298;2022-08-02T12:19:16;2.95;;;1.17;;
43504;SDS011;29098;48.184;16.298;2022-08-02T12:22:26;3.22;;;1.38;;
43504;SDS011;29098;48.184;16.298;2022-08-02T12:25:39;1.83;;;1.10;;
43504;SDS011;29098;48.184;16.298;2022-08-02T12:28:38;1.92;;;1.10;;
43504;SDS011;29098;48.184;16.298;2022-08-02T12:31:45;6.38;;;1.95;;
43504;SDS011;29098;48.184;16.298;2022-08-02T12:34:26;2.38;;;1.40;;
43504;SDS011;29098;48.184;16.298;2022-08-02T12:37:43;2.63;;;1.15;;
43504;SDS011;29098;48.184;16.298;2022-08-02T12:41:10;3.00;;;1.30;;
43504;SDS011;29098;48.184;16.298;2022-08-02T12:43:51;2.25;;;1.27;;
43504;SDS011;29098;48.184;16.298;2022-08-02T12:47:01;2.72;;;1.58;;
43504;SDS011;29098;48.184;16.298;2022-08-02T12:50:36;2.10;;;1.20;;
43504;SDS011;29098;48.184;16.298;2022-08-02T12:54:14;2.35;;;1.20;;
43504;SDS011;29098;48.184;16.298;2022-08-02T12:57:57;2.85;;;1.40;;
43504;SDS011;29098;48.184;16.298;2022-08-02T13:00:55;1.60;;;1.00;;
43504;SDS011;29098;48.184;16.298;2022-08-02T13:03:52;1.92;;;1.00;;
43504;SDS011;29098;48.184;16.298;2022-08-02T13:07:04;2.00;;;1.15;;
43504;SDS011;29098;48.184;16.298;2022-08-02T13:10:09;2.72;;;1.50;;
43504;SDS011;29098;48.184;16.298;2022-08-02T13:12:42;2.95;;;1.40;;
43504;SDS011;29098;48.184;16.298;2022-08-02T13:15:19;2.72;;;1.38;;
43504;SDS011;29098;48.184;16.298;2022-08-02T13:18:15;1.95;;;1.30;;
43504;SDS011;29098;48.184;16.298;2022-08-02T13:21:46;5.72;;;1.13;;
43504;SDS011;29098;48.184;16.298;2022-08-02T13:24:54;1.60;;;0.98;;
43504;SDS011;29098;48.184;16.298;2022-08-02T13:27:49;3.22;;;1.30;;
43504;SDS011;29098;48.184;16.298;2022-08-02T13:30:51;2.25;;;1.23;;
43504;SDS011;29098;48.184;16.298;2022-08-02T13:33:58;2.63;;;1.30;;
43504;SDS011;29098;48.184;16.298;2022-08-02T13:37:05;3.35;;;2.03;;
43504;SDS011;29098;48.184;16.298;2022-08-02T13:40:22;2.20;;;1.20;;
43504;SDS011;29098;48.184;16.298;2022-08-02T13:43:37;2.00;;;1.05;;
43504;SDS011;29098;48.184;16.298;2022-08-02T13:46:47;2.20;;;1.30;;
43504;SDS011;29098;48.184;16.298;2022-08-02T13:49:43;2.65;;;1.50;;
43504;SDS011;29098;48.184;16.298;2022-08-02T13:52:48;3.42;;;1.10;;
43504;SDS011;29098;48.184;16.298;2022-08-02T13:56:00;4.10;;;1.98;;
43504;SDS011;29098;48.184;16.298;2022-08-02T13:59:08;2.20;;;1.20;;
43504;SDS011;29098;48.184;16.298;2022-08-02T14:02:27;1.75;;;1.00;;
43504;SDS011;29098;48.184;16.298;2022-08-02T14:05:30;2.80;;;1.30;;
43504;SDS011;29098;48.184;16.298;2022-08-02T14:08:38;1.98;;;1.00;;
43504;SDS011;29098;48.184;16.298;2022-08-02T14:11:44;2.58;;;1.35;;
43504;SDS011;29098;48.184;16.298;2022-08-02T14:14:38;2.22;;;1.00;;
43504;SDS011;29098;48.184;16.298;2022-08-02T14:17:51;2.38;;;1.02;;
43504;SDS011;29098;48.184;16.298;2022-08-02T14:20:57;2.17;;;1.10;;
43504;SDS011;29098;48.184;16.298;2022-08-02T14:23:40;2.45;;;1.23;;
43504;SDS011;29098;48.184;16.298;2022-08-02T14:30:01;2.33;;;1.30;;
43504;SDS011;29098;48.184;16.298;2022-08-02T14:33:10;2.00;;;1.10;;
43504;SDS011;29098;48.184;16.298;2022-08-02T14:35:56;1.73;;;1.10;;
43504;SDS011;29098;48.184;16.298;2022-08-02T14:38:31;2.00;;;1.10;;
43504;SDS011;29098;48.184;16.298;2022-08-02T14:41:25;2.28;;;1.30;;
43504;SDS011;29098;48.184;16.298;2022-08-02T14:44:35;2.05;;;1.10;;
43504;SDS011;29098;48.184;16.298;2022-08-02T14:47:05;3.28;;;1.33;;
43504;SDS011;29098;48.184;16.298;2022-08-02T14:50:33;2.95;;;1.20;;
43504;SDS011;29098;48.184;16.298;2022-08-02T14:53:39;2.20;;;1.30;;
43504;SDS011;29098;48.184;16.298;2022-08-02T14:57:11;3.75;;;1.45;;
43504;SDS011;29098;48.184;16.298;2022-08-02T15:00:22;3.45;;;1.50;;
43504;SDS011;29098;48.184;16.298;2022-08-02T15:03:32;2.70;;;1.30;;
43504;SDS011;29098;48.184;16.298;2022-08-02T15:06:45;2.17;;;1.00;;
43504;SDS011;29098;48.184;16.298;2022-08-02T15:09:54;2.80;;;1.33;;
43504;SDS011;29098;48.184;16.298;2022-08-02T15:12:41;2.72;;;1.42;;
43504;SDS011;29098;48.184;16.298;2022-08-02T15:16:07;1.73;;;1.08;;
43504;SDS011;29098;48.184;16.298;2022-08-02T15:19:03;2.72;;;1.52;;
43504;SDS011;29098;48.184;16.298;2022-08-02T15:21:41;3.30;;;1.95;;
43504;SDS011;29098;48.184;16.298;2022-08-02T15:24:38;3.10;;;1.63;;
43504;SDS011;29098;48.184;16.298;2022-08-02T15:27:28;2.03;;;1.40;;
43504;SDS011;29098;48.184;16.298;2022-08-02T15:30:05;2.42;;;1.20;;
43504;SDS011;29098;48.184;16.298;2022-08-02T15:33:34;1.52;;;0.93;;
43504;SDS011;29098;48.184;16.298;2022-08-02T15:36:48;3.78;;;1.20;;
43504;SDS011;29098;48.184;16.298;2022-08-02T15:39:34;2.60;;;1.40;;
43504;SDS011;29098;48.184;16.298;2022-08-02T15:43:04;2.35;;;1.10;;
43504;SDS011;29098;48.184;16.298;2022-08-02T15:46:11;2.85;;;1.40;;
43504;SDS011;29098;48.184;16.298;2022-08-02T15:49:19;2.55;;;1.23;;
43504;SDS011;29098;48.184;16.298;2022-08-02T15:52:05;1.65;;;1.00;;
43504;SDS011;29098;48.184;16.298;2022-08-02T15:55:37;3.10;;;1.48;;
43504;SDS011;29098;48.184;16.298;2022-08-02T15:58:54;3.22;;;1.63;;
43504;SDS011;29098;48.184;16.298;2022-08-02T16:02:00;1.83;;;1.00;;
43504;SDS011;29098;48.184;16.298;2022-08-02T16:05:27;3.05;;;1.30;;
43504;SDS011;29098;48.184;16.298;2022-08-02T16:08:34;3.00;;;1.15;;
43504;SDS011;29098;48.184;16.298;2022-08-02T16:12:00;1.85;;;1.20;;
43504;SDS011;29098;48.184;16.298;2022-08-02T16:14:50;3.33;;;1.38;;
43504;SDS011;29098;48.184;16.298;2022-08-02T16:17:37;3.08;;;1.40;;
43504;SDS011;29098;48.184;16.298;2022-08-02T16:20:52;2.53;;;1.15;;
43504;SDS011;29098;48.184;16.298;2022-08-02T16:23:42;2.42;;;1.00;;
43504;SDS011;29098;48.184;16.298;2022-08-02T16:26:46;3.25;;;1.30;;
43504;SDS011;29098;48.184;16.298;2022-08-02T16:29:51;2.28;;;1.15;;
43504;SDS011;29098;48.184;16.298;2022-08-02T16:32:42;3.50;;;1.08;;
43504;SDS011;29098;48.184;16.298;2022-08-02T16:35:35;2.15;;;1.30;;
43504;SDS011;29098;48.184;16.298;2022-08-02T16:38:43;2.47;;;1.15;;
43504;SDS011;29098;48.184;16.298;2022-08-02T16:41:34;2.45;;;1.38;;
43504;SDS011;29098;48.184;16.298;2022-08-02T16:44:24;3.00;;;1.35;;
43504;SDS011;29098;48.184;16.298;2022-08-02T16:47:42;2.30;;;1.27;;
43504;SDS011;29098;48.184;16.298;2022-08-02T16:50:14;2.45;;;1.27;;
43504;SDS011;29098;48.184;16.298;2022-08-02T16:53:23;2.38;;;1.20;;
43504;SDS011;29098;48.184;16.298;2022-08-02T16:55:52;3.10;;;1.67;;
43504;SDS011;29098;48.184;16.298;2022-08-02T16:59:00;3.08;;;1.27;;
43504;SDS011;29098;48.184;16.298;2022-08-02T17:02:19;2.45;;;1.27;;
43504;SDS011;29098;48.184;16.298;2022-08-02T17:05:28;2.15;;;1.23;;
43504;SDS011;29098;48.184;16.298;2022-08-02T17:08:39;5.63;;;1.52;;
43504;SDS011;29098;48.184;16.298;2022-08-02T17:12:00;2.45;;;1.42;;
43504;SDS011;29098;48.184;16.298;2022-08-02T17:15:07;2.85;;;1.30;;
43504;SDS011;29098;48.184;16.298;2022-08-02T17:18:32;3.65;;;1.30;;
43504;SDS011;29098;48.184;16.298;2022-08-02T17:21:09;3.55;;;1.35;;
43504;SDS011;29098;48.184;16.298;2022-08-02T17:24:14;4.25;;;1.40;;
43504;SDS011;29098;48.184;16.298;2022-08-02T17:27:23;4.10;;;1.90;;
43504;SDS011;29098;48.184;16.298;2022-08-02T17:30:38;8.18;;;1.67;;
43504;SDS011;29098;48.184;16.298;2022-08-02T17:33:48;2.83;;;1.48;;
43504;SDS011;29098;48.184;16.298;2022-08-02T17:36:54;3.72;;;1.60;;
43504;SDS011;29098;48.184;16.298;2022-08-02T17:39:59;2.42;;;1.48;;
43504;SDS011;29098;48.184;16.298;2022-08-02T17:42:52;2.10;;;1.48;;
43504;SDS011;29098;48.184;16.298;2022-08-02T17:45:41;4.57;;;1.80;;
43504;SDS011;29098;48.184;16.298;2022-08-02T17:48:56;2.78;;;1.70;;
43504;SDS011;29098;48.184;16.298;2022-08-02T17:52:08;2.67;;;1.50;;
43504;SDS011;29098;48.184;16.298;2022-08-02T17:55:04;3.80;;;1.63;;
43504;SDS011;29098;48.184;16.298;2022-08-02T17:58:11;3.67;;;1.70;;
43504;SDS011;29098;48.184;16.298;2022-08-02T18:01:07;2.38;;;1.48;;
43504;SDS011;29098;48.184;16.298;2022-08-02T18:04:35;3.25;;;1.63;;
43504;SDS011;29098;48.184;16.298;2022-08-02T18:07:07;3.88;;;1.83;;
43504;SDS011;29098;48.184;16.298;2022-08-02T18:10:04;2.70;;;1.42;;
43504;SDS011;29098;48.184;16.298;2022-08-02T18:13:13;3.80;;;1.70;;
43504;SDS011;29098;48.184;16.298;2022-08-02T18:16:21;2.75;;;1.40;;
43504;SDS011;29098;48.184;16.298;2022-08-02T18:19:10;5.35;;;1.95;;
43504;SDS011;29098;48.184;16.298;2022-08-02T18:22:22;5.15;;;1.92;;
43504;SDS011;29098;48.184;16.298;2022-08-02T18:25:14;3.13;;;1.50;;
43504;SDS011;29098;48.184;16.298;2022-08-02T18:28:15;5.38;;;1.67;;
43504;SDS011;29098;48.184;16.298;2022-08-02T18:31:23;3.25;;;1.55;;
43504;SDS011;29098;48.184;16.298;2022-08-02T18:34:31;3.22;;;1.60;;
43504;SDS011;29098;48.184;16.298;2022-08-02T18:37:19;4.03;;;1.50;;
43504;SDS011;29098;48.184;16.298;2022-08-02T18:40:11;3.00;;;2.03;;
43504;SDS011;29098;48.184;16.298;2022-08-02T18:43:21;2.65;;;1.60;;
43504;SDS011;29098;48.184;16.298;2022-08-02T18:46:07;2.35;;;1.38;;
43504;SDS011;29098;48.184;16.298;2022-08-02T18:49:32;3.40;;;1.60;;
43504;SDS011;29098;48.184;16.298;2022-08-02T18:52:25;3.72;;;1.55;;
43504;SDS011;29098;48.184;16.298;2022-08-02T18:55:50;2.80;;;1.63;;
43504;SDS011;29098;48.184;16.298;2022-08-02T18:59:17;3.10;;;1.60;;
43504;SDS011;29098;48.184;16.298;2022-08-02T19:05:23;4.15;;;1.80;;
43504;SDS011;29098;48.184;16.298;2022-08-02T19:08:11;4.65;;;1.60;;